Time;durP1;ratioP1;P1;durP2;ratioP2;P2;SDS_P1;SDS_P2;PMS_P1;PMS_P2;Temp;Humidity;BMP_temperature;BMP_pressure;BME280_temperature;BME280_humidity;BME280_pressure;Samples;Min_cycle;Max_cycle;Signal;HPM_P1;HPM_P2
2021/11/01 00:00:20;;;;;;;13.00;7.03;;;;;;;11.02;59.54;99277.94;4880292;29;20057;-61
2021/11/01 00:02:50;;;;;;;11.95;6.53;;;;;;;10.84;59.78;99282.38;4879618;29;20136;-61
2021/11/01 00:05:25;;;;;;;13.50;7.82;;;;;;;10.77;60.23;99274.75;4879873;29;20539;-61
2021/11/01 00:07:59;;;;;;;11.52;6.38;;;;;;;10.55;61.05;99268.16;4880367;29;20556;-61
2021/11/01 00:10:31;;;;;;;11.45;7.20;;;;;;;10.38;61.62;99277.63;4880100;29;20045;-61
2021/11/01 00:13:06;;;;;;;12.30;6.68;;;;;;;10.31;61.57;99260.66;4880028;29;20135;-61
2021/11/01 00:15:36;;;;;;;11.80;7.05;;;;;;;10.20;62.12;99267.50;4879178;29;20049;-61
2021/11/01 00:18:08;;;;;;;12.27;7.15;;;;;;;10.12;62.70;99268.41;4880114;29;20060;-61
2021/11/01 00:20:40;;;;;;;11.10;6.82;;;;;;;10.17;62.75;99262.44;4880550;29;20053;-61
2021/11/01 00:23:13;;;;;;;12.60;6.75;;;;;;;10.15;62.32;99269.22;4879858;29;20091;-61
2021/11/01 00:25:46;;;;;;;13.90;7.15;;;;;;;10.17;61.83;99257.34;4880279;29;20463;-61
2021/11/01 00:28:19;;;;;;;11.88;6.88;;;;;;;10.21;62.26;99265.81;4879869;29;20057;-61
2021/11/01 00:30:52;;;;;;;14.32;7.20;;;;;;;9.99;62.55;99267.59;4879875;29;20057;-61
2021/11/01 00:33:25;;;;;;;13.05;7.47;;;;;;;9.92;63.31;99250.66;4880359;29;20128;-61
2021/11/01 00:35:59;;;;;;;14.63;7.65;;;;;;;9.80;62.60;99255.81;4879798;29;20053;-61
2021/11/01 00:38:32;;;;;;;14.45;7.57;;;;;;;9.82;63.26;99254.09;4880053;29;20060;-61
2021/11/01 00:41:06;;;;;;;13.30;7.97;;;;;;;10.09;62.40;99248.84;4879774;29;20045;-61
2021/11/01 00:43:35;;;;;;;13.77;7.55;;;;;;;10.10;62.87;99242.91;4879635;29;20044;-61
2021/11/01 00:46:07;;;;;;;12.73;7.15;;;;;;;9.98;63.34;99250.63;4880261;29;20123;-61
2021/11/01 00:48:37;;;;;;;12.63;7.32;;;;;;;10.03;63.09;99248.88;4879724;29;20132;-61
2021/11/01 00:51:09;;;;;;;14.18;7.95;;;;;;;10.02;62.94;99248.06;4879672;29;20135;-61
2021/11/01 00:53:47;;;;;;;12.27;7.68;;;;;;;9.87;62.90;99247.25;4880186;29;20136;-61
2021/11/01 00:56:22;;;;;;;13.98;7.97;;;;;;;9.86;62.93;99245.59;4879620;29;20049;-61
2021/11/01 00:58:51;;;;;;;12.65;7.38;;;;;;;9.86;63.14;99246.41;4879897;29;20514;-61
2021/11/01 01:01:20;;;;;;;12.57;7.22;;;;;;;9.72;62.74;99238.00;4879550;29;20135;-61
2021/11/01 01:03:51;;;;;;;13.63;7.30;;;;;;;9.67;63.01;99231.25;4879417;29;20128;-61
2021/11/01 01:06:21;;;;;;;12.55;7.40;;;;;;;9.57;63.70;99221.94;4879519;29;20139;-61
2021/11/01 01:08:53;;;;;;;11.23;5.68;;;;;;;9.54;63.62;99220.25;4879538;29;20098;-61
2021/11/01 01:11:29;;;;;;;13.80;7.88;;;;;;;9.57;64.35;99225.34;4879546;29;20457;-61
2021/11/01 01:14:02;;;;;;;12.60;7.43;;;;;;;9.59;64.03;99221.09;4880063;29;20139;-61
2021/11/01 01:16:38;;;;;;;13.80;7.40;;;;;;;9.53;63.73;99222.78;4882792;29;20052;-61
2021/11/01 01:19:17;;;;;;;14.60;8.13;;;;;;;9.44;64.44;99216.91;4883185;29;20523;-60
2021/11/01 01:24:32;;;;;;;13.02;7.25;;;;;;;9.54;63.78;99206.66;4883193;29;20049;-61
2021/11/01 01:27:06;;;;;;;13.20;7.43;;;;;;;9.41;63.82;99196.53;4883404;29;20417;-61
2021/11/01 01:29:38;;;;;;;13.52;7.78;;;;;;;9.23;63.90;99204.25;4883421;29;20488;-61
2021/11/01 01:32:08;;;;;;;13.38;7.95;;;;;;;9.39;64.23;99195.69;4883452;29;20097;-61
2021/11/01 01:34:37;;;;;;;;;;;;;;;9.53;63.50;99187.13;4883526;29;20053;-61
2021/11/01 01:37:09;;;;;;;13.45;7.30;;;;;;;9.62;63.80;99189.66;4882681;29;19930;-61
2021/11/01 01:39:42;;;;;;;12.52;7.30;;;;;;;9.75;63.46;99186.16;4883053;29;20063;-61
2021/11/01 01:42:16;;;;;;;13.07;7.32;;;;;;;9.81;63.27;99183.59;4882665;29;20053;-60
2021/11/01 01:44:49;;;;;;;12.77;6.50;;;;;;;9.98;62.19;99185.16;4882592;29;20076;-61
2021/11/01 01:47:18;;;;;;;14.25;7.72;;;;;;;10.25;62.13;99186.72;4883478;29;20049;-61
2021/11/01 01:49:48;;;;;;;14.30;7.38;;;;;;;10.44;61.54;99187.41;4882845;29;20060;-61
2021/11/01 01:52:18;;;;;;;12.52;7.35;;;;;;;10.52;60.27;99189.06;4882475;29;20042;-61
2021/11/01 01:54:50;;;;;;;14.45;7.18;;;;;;;10.60;60.31;99179.66;4883098;29;20113;-61
2021/11/01 01:57:22;;;;;;;13.18;7.45;;;;;;;10.73;59.93;99173.56;4882339;29;20052;-61
2021/11/01 01:59:54;;;;;;;12.43;7.55;;;;;;;10.75;59.23;99171.81;4882428;29;20519;-61
2021/11/01 02:02:27;;;;;;;12.32;6.75;;;;;;;10.82;59.51;99177.75;4882649;29;20049;-61
2021/11/01 02:04:59;;;;;;;12.82;7.05;;;;;;;10.78;59.17;99171.81;4882474;29;20049;-61
2021/11/01 02:07:39;;;;;;;11.68;6.95;;;;;;;10.82;59.06;99167.53;4882515;29;20072;-61
2021/11/01 02:10:12;;;;;;;13.15;6.80;;;;;;;10.84;59.25;99159.84;4882534;29;20579;-61
2021/11/01 02:12:50;;;;;;;12.90;6.75;;;;;;;10.91;58.70;99161.47;4882465;29;20115;-61
2021/11/01 02:15:24;;;;;;;11.25;7.00;;;;;;;10.98;58.18;99160.53;4882147;29;20080;-61
2021/11/01 02:17:57;;;;;;;13.07;6.88;;;;;;;11.02;58.03;99157.09;4882004;29;20132;-61
2021/11/01 02:20:38;;;;;;;11.68;6.22;;;;;;;11.05;57.85;99150.25;4882026;29;20072;-61
2021/11/01 02:23:17;;;;;;;10.95;6.72;;;;;;;11.02;57.63;99154.53;4881973;29;20492;-61
2021/11/01 02:25:50;;;;;;;12.85;6.35;;;;;;;11.00;57.84;99153.72;4881546;29;20076;-61
2021/11/01 02:28:21;;;;;;;11.00;6.65;;;;;;;11.01;57.74;99157.97;4881982;29;20110;-61
2021/11/01 02:30:54;;;;;;;11.43;7.03;;;;;;;11.05;57.77;99154.50;4881885;29;20105;-61
2021/11/01 02:33:27;;;;;;;12.57;6.50;;;;;;;11.10;57.42;99142.53;4882635;29;20135;-60
2021/11/01 02:36:01;;;;;;;10.93;6.50;;;;;;;11.13;57.43;99139.94;4882335;29;20144;-61
2021/11/01 02:38:31;;;;;;;11.38;6.22;;;;;;;11.18;57.26;99122.88;4882213;29;20041;-61
2021/11/01 02:41:17;;;;;;;12.13;6.68;;;;;;;11.22;56.92;99133.03;4882179;29;20053;-61
2021/11/01 02:43:54;;;;;;;10.80;6.53;;;;;;;11.23;57.30;99128.75;4881860;29;20057;-60
2021/11/01 02:46:28;;;;;;;11.93;6.22;;;;;;;11.26;56.55;99134.66;4881480;29;20056;-61
2021/11/01 02:48:57;;;;;;;10.27;6.63;;;;;;;11.29;56.72;99129.53;4881738;29;20049;-61
2021/11/01 02:51:29;;;;;;;11.95;6.18;;;;;;;11.32;56.57;99129.50;4881381;29;20504;-61
2021/11/01 02:54:03;;;;;;;12.30;6.90;;;;;;;11.39;56.47;99135.38;4881379;29;20053;-61
2021/11/01 02:56:34;;;;;;;10.63;5.85;;;;;;;11.38;56.46;99133.66;4881395;29;20097;-61
2021/11/01 02:59:04;;;;;;;11.60;6.40;;;;;;;11.27;56.71;99131.25;4881605;29;20131;-61
2021/11/01 03:01:36;;;;;;;12.55;6.72;;;;;;;11.31;56.46;99132.06;4881253;29;20049;-61
2021/11/01 03:04:10;;;;;;;11.25;6.38;;;;;;;11.21;56.42;99125.34;4881195;29;20475;-61
2021/11/01 03:06:40;;;;;;;11.75;6.28;;;;;;;11.11;56.86;99126.34;4881129;29;20059;-61
2021/11/01 03:09:13;;;;;;;12.10;6.38;;;;;;;11.12;56.91;99130.59;4881654;29;20127;-61
2021/11/01 03:11:47;;;;;;;12.25;6.70;;;;;;;11.19;56.42;99132.19;4881701;29;20440;-61
2021/11/01 03:14:28;;;;;;;10.68;5.90;;;;;;;11.29;56.18;99126.13;4881104;29;20048;-61
2021/11/01 03:17:03;;;;;;;10.82;6.13;;;;;;;11.16;56.76;99127.97;4880206;29;20579;-61
2021/11/01 03:19:35;;;;;;;12.05;6.80;;;;;;;11.13;56.70;99122.91;4880914;29;20049;-61
2021/11/01 03:22:06;;;;;;;10.82;6.43;;;;;;;11.03;56.70;99100.06;4880917;29;20056;-61
2021/11/01 03:24:39;;;;;;;13.15;6.63;;;;;;;10.93;57.61;99124.00;4880807;29;20079;-61
2021/11/01 03:27:11;;;;;;;12.82;6.57;;;;;;;10.74;58.14;99124.22;4880860;29;20077;-61
2021/11/01 03:29:46;;;;;;;11.73;6.05;;;;;;;10.72;57.97;99115.69;4881135;29;20083;-61
2021/11/01 03:32:18;;;;;;;10.90;6.60;;;;;;;10.61;58.24;99114.97;4881026;29;20116;-61
2021/11/01 03:34:52;;;;;;;10.07;6.45;;;;;;;10.67;57.79;99112.38;4880695;29;20128;-61
2021/11/01 03:37:25;;;;;;;11.98;6.25;;;;;;;10.81;58.06;99108.81;4880776;29;20053;-61
2021/11/01 03:39:59;;;;;;;13.88;5.90;;;;;;;10.89;57.85;99104.47;4880649;29;20048;-61
2021/11/01 03:42:33;;;;;;;12.65;6.43;;;;;;;11.02;56.94;99114.53;4880580;29;20081;-61
2021/11/01 03:45:09;;;;;;;11.40;6.22;;;;;;;10.98;57.13;99112.03;4880785;29;20555;-61
2021/11/01 03:47:42;;;;;;;11.88;6.47;;;;;;;10.98;57.13;99101.81;4880500;29;20052;-61
2021/11/01 03:50:27;;;;;;;11.68;6.45;;;;;;;11.03;57.03;99100.91;4880506;29;20059;-61
2021/11/01 03:52:59;;;;;;;10.80;6.07;;;;;;;11.03;56.97;99097.50;4880408;29;20105;-61
2021/11/01 03:55:29;;;;;;;9.93;6.03;;;;;;;11.04;57.20;99096.63;4880951;29;20362;-61
2021/11/01 03:58:04;;;;;;;10.40;5.53;;;;;;;11.09;57.01;99090.59;4880853;29;20049;-61
2021/11/01 04:00:36;;;;;;;11.30;6.47;;;;;;;11.20;56.71;99093.88;4880227;29;20056;-61
2021/11/01 04:03:09;;;;;;;10.27;6.00;;;;;;;11.26;56.20;99092.94;4880526;29;20488;-61
2021/11/01 04:05:38;;;;;;;11.05;5.55;;;;;;;11.27;56.50;99084.44;4880157;29;20052;-61
2021/11/01 04:08:07;;;;;;;14.32;6.32;;;;;;;11.17;56.35;99082.84;4880499;29;20135;-61
2021/11/01 04:10:40;;;;;;;13.98;6.35;;;;;;;11.14;57.12;99090.53;4880021;29;20145;-61
2021/11/01 04:13:15;;;;;;;9.80;5.43;;;;;;;11.18;57.05;99084.56;4879944;29;20049;-61
2021/11/01 04:15:47;;;;;;;11.50;7.07;;;;;;;10.98;57.43;99083.94;4880371;29;20064;-61
2021/11/01 04:18:27;;;;;;;11.90;5.97;;;;;;;10.77;57.98;99083.31;4880292;29;20065;-61
2021/11/01 04:20:59;;;;;;;12.97;6.40;;;;;;;10.72;57.87;99079.97;4880307;29;20053;-61
2021/11/01 04:23:36;;;;;;;11.77;6.05;;;;;;;10.75;58.51;99079.94;4879965;29;20576;-61
2021/11/01 04:26:09;;;;;;;12.40;6.53;;;;;;;10.72;58.26;99085.06;4879902;29;20056;-61
2021/11/01 04:28:43;;;;;;;15.50;6.60;;;;;;;10.68;58.28;99088.53;4879917;29;20052;-61
2021/11/01 04:31:20;;;;;;;9.98;5.50;;;;;;;10.66;58.81;99067.28;4879824;29;20045;-61
2021/11/01 04:34:00;;;;;;;14.48;6.47;;;;;;;10.68;58.45;99080.88;4880108;29;20072;-61
2021/11/01 04:36:33;;;;;;;9.93;5.25;;;;;;;10.81;58.17;99084.16;4879808;29;20067;-61
2021/11/01 04:39:10;;;;;;;11.75;6.20;;;;;;;10.84;58.34;99084.13;4879828;29;20059;-61
2021/11/01 04:41:54;;;;;;;11.70;6.40;;;;;;;10.78;58.88;99086.72;4879969;29;20498;-61
2021/11/01 04:53:04;;;;;;;12.07;6.55;;;;;;;10.77;58.63;99057.78;4807781;29;20053;-61
2021/11/01 04:55:37;;;;;;;13.02;6.85;;;;;;;10.84;58.32;99062.84;4825249;29;20086;-61
2021/11/01 04:58:09;;;;;;;13.48;7.53;;;;;;;10.56;58.17;99063.13;4826369;29;20057;-61
2021/11/01 05:00:45;;;;;;;14.45;7.28;;;;;;;10.42;58.30;99059.03;4826098;29;20058;-61
2021/11/01 05:03:29;;;;;;;12.10;6.97;;;;;;;10.03;59.16;99039.81;4867964;29;20507;-61
2021/11/01 05:06:01;;;;;;;13.10;7.63;;;;;;;9.86;59.57;99062.91;4883273;29;20136;-61
2021/11/01 05:08:41;;;;;;;14.23;7.80;;;;;;;9.65;59.84;99054.59;4883354;29;20049;-61
2021/11/01 05:11:22;;;;;;;15.68;8.10;;;;;;;9.36;60.51;99070.91;4883241;29;20132;-61
2021/11/01 05:13:54;;;;;;;13.82;7.95;;;;;;;9.25;61.11;99061.63;4883482;29;20053;-61
2021/11/01 05:16:43;;;;;;;14.32;8.18;;;;;;;9.10;61.65;99062.56;4882481;29;20061;-61
2021/11/01 05:19:21;;;;;;;13.73;7.55;;;;;;;8.85;61.83;99055.06;4883396;29;20556;-61
2021/11/01 05:21:59;;;;;;;12.85;7.22;;;;;;;8.81;62.42;99058.44;4883098;29;20064;-61
2021/11/01 05:24:36;;;;;;;17.90;7.78;;;;;;;8.87;61.95;99051.66;4883141;29;20052;-61
2021/11/01 05:27:23;;;;;;;13.77;7.63;;;;;;;8.82;62.13;99050.81;4883146;29;20081;-61
2021/11/01 05:30:03;;;;;;;14.40;7.93;;;;;;;8.80;62.51;99051.69;4883141;29;20069;-61
2021/11/01 05:32:41;;;;;;;16.48;8.00;;;;;;;8.68;63.42;99047.50;4882930;29;20112;-61
2021/11/01 05:35:13;;;;;;;14.15;8.52;;;;;;;8.63;63.27;99049.19;4882800;29;20057;-61
2021/11/01 05:37:47;;;;;;;16.92;8.75;;;;;;;8.59;63.51;99047.53;4882802;29;20049;-61
2021/11/01 05:40:19;;;;;;;17.77;9.63;;;;;;;8.57;63.79;99055.13;4882724;29;20049;-61
2021/11/01 05:42:55;;;;;;;16.20;8.50;;;;;;;8.66;63.02;99059.38;4882691;29;20060;-61
2021/11/01 05:45:27;;;;;;;15.95;8.73;;;;;;;8.70;63.30;99053.41;4882483;29;20113;-61
2021/11/01 05:48:02;;;;;;;16.50;8.50;;;;;;;8.66;63.41;99054.28;4882819;29;20121;-61
2021/11/01 05:50:36;;;;;;;14.65;8.10;;;;;;;8.57;63.45;99059.38;4883129;29;20053;-61
2021/11/01 05:53:09;;;;;;;17.38;8.48;;;;;;;8.54;62.86;99044.16;4882476;29;20061;-61
2021/11/01 05:55:50;;;;;;;14.60;7.45;;;;;;;8.43;63.21;99054.34;4882597;29;20044;-61
2021/11/01 05:58:28;;;;;;;15.82;8.70;;;;;;;8.38;63.48;99050.09;4882672;29;20044;-61
2021/11/01 06:04:21;;;;;;;18.92;8.73;;;;;;;8.23;63.92;99052.66;4844303;29;20090;-61
2021/11/01 06:07:01;;;;;;;19.17;9.32;;;;;;;8.30;63.76;99041.66;4845314;29;20114;-61
2021/11/01 06:09:49;;;;;;;17.92;9.45;;;;;;;8.39;64.65;99049.25;4845231;29;20053;-61
2021/11/01 06:15:03;;;;;;;17.23;9.25;;;;;;;8.55;64.06;99007.69;4845195;29;20054;-61
2021/11/01 06:17:35;;;;;;;15.52;8.57;;;;;;;8.85;64.24;99035.56;4845103;29;20076;-61
2021/11/01 06:20:10;;;;;;;19.23;9.45;;;;;;;9.03;64.24;99030.38;4845515;29;20069;-61
2021/11/01 06:22:43;;;;;;;14.90;9.30;;;;;;;9.13;63.55;99037.09;4845098;29;20089;-62
2021/11/01 06:25:16;;;;;;;16.23;8.88;;;;;;;9.25;64.18;99034.50;4845211;29;20103;-62
2021/11/01 06:27:53;;;;;;;16.02;8.10;;;;;;;9.52;63.83;99035.16;4845140;29;20049;-61
2021/11/01 06:30:27;;;;;;;13.38;7.22;;;;;;;9.74;63.88;99016.31;4844877;29;20133;-62
2021/11/01 07:16:41;;;;;;;12.13;5.47;;;;;;;11.68;58.03;99023.38;5131743;27;20049;-62
2021/11/01 07:19:25;;;;;;;11.52;6.10;;;;;;;11.57;58.40;99025.22;5131833;28;20039;-62
2021/11/01 08:24:56;;;;;;;9.18;5.00;;;;;;;12.88;51.45;98986.19;5116563;28;20039;-62
2021/11/01 08:27:50;;;;;;;9.60;4.78;;;;;;;13.00;50.83;98985.91;5116842;28;20424;-62
2021/11/01 08:38:56;;;;;;;8.25;5.00;;;;;;;13.16;49.53;98966.78;5116143;28;20043;-62
2021/11/01 09:03:29;;;;;;;7.88;4.90;;;;;;;14.06;47.82;98929.50;5116216;28;20055;-62
2021/11/01 09:06:13;;;;;;;10.23;5.38;;;;;;;14.17;47.48;98924.94;5115872;28;20044;-62
2021/11/01 09:19:54;;;;;;;;;;;;;;;14.61;45.81;98916.81;5115971;28;20075;-62
2021/11/01 09:22:42;;;;;;;8.27;5.10;;;;;;;14.45;46.53;98910.47;5114562;28;20412;-62
2021/11/01 09:25:27;;;;;;;8.48;4.78;;;;;;;14.42;46.27;98905.41;5115670;28;20362;-61
2021/11/01 09:28:04;;;;;;;7.80;4.47;;;;;;;14.36;46.68;98905.59;5115394;28;20073;-62
2021/11/01 09:36:04;;;;;;;8.88;5.10;;;;;;;14.11;47.32;98884.88;5115248;28;20058;-61
2021/11/01 09:41:35;;;;;;;11.25;5.03;;;;;;;13.89;47.88;98881.19;5072412;28;20445;-62
2021/11/01 09:44:11;;;;;;;7.70;4.95;;;;;;;13.94;47.67;98883.66;5072371;28;20127;-62
2021/11/01 09:46:43;;;;;;;8.15;5.10;;;;;;;14.17;47.27;98873.59;5072164;28;20048;-62
2021/11/01 09:49:15;;;;;;;6.75;3.70;;;;;;;14.30;46.90;98861.28;5072137;28;20099;-62
2021/11/01 09:51:50;;;;;;;8.38;4.65;;;;;;;14.19;46.71;98850.44;5072276;28;20051;-62
2021/11/01 09:54:25;;;;;;;10.32;5.63;;;;;;;14.32;47.21;98870.63;5072190;28;20052;-61
2021/11/01 09:57:01;;;;;;;10.57;5.47;;;;;;;14.52;46.82;98870.88;5092840;28;20044;-62
2021/11/01 09:59:40;;;;;;;8.15;4.53;;;;;;;14.79;46.24;98856.38;5114452;28;20066;-62
2021/11/01 10:02:12;;;;;;;9.27;5.10;;;;;;;14.97;45.75;98839.53;5115075;28;20507;-62
2021/11/01 10:04:46;;;;;;;8.30;4.35;;;;;;;15.10;45.68;98853.66;5114777;28;20130;-62
2021/11/01 10:07:24;;;;;;;9.50;5.25;;;;;;;15.11;44.95;98834.81;5114592;28;20047;-62
2021/11/01 10:09:59;;;;;;;9.88;5.32;;;;;;;15.26;44.80;98834.31;5114960;28;20484;-62
2021/11/01 10:12:32;;;;;;;7.43;4.72;;;;;;;15.25;44.61;98842.91;5114563;28;20048;-62
2021/11/01 10:17:57;;;;;;;10.85;4.97;;;;;;;15.34;45.04;98822.00;5114702;28;20035;-62
2021/11/01 10:20:30;;;;;;;7.43;4.53;;;;;;;15.48;44.53;98830.13;5114365;28;20044;-62
2021/11/01 10:23:00;;;;;;;7.47;3.70;;;;;;;15.25;44.63;98809.47;5114138;28;20040;-62
2021/11/01 10:25:30;;;;;;;8.95;5.35;;;;;;;15.42;45.35;98835.47;5114205;28;20135;-62
2021/11/01 10:28:00;;;;;;;7.25;4.68;;;;;;;15.29;45.47;98831.59;5114099;28;20484;-62
2021/11/01 10:30:33;;;;;;;7.82;4.57;;;;;;;15.25;45.63;98828.31;5114305;28;20373;-62
2021/11/01 10:33:06;;;;;;;9.10;5.75;;;;;;;15.16;46.11;98822.63;5113928;28;20044;-62
2021/11/01 10:35:39;;;;;;;8.88;4.85;;;;;;;15.21;45.99;98811.28;5114076;28;20062;-62
2021/11/01 10:38:17;;;;;;;7.47;4.82;;;;;;;15.53;45.62;98807.66;5114155;28;20052;-62
2021/11/01 10:40:56;;;;;;;9.63;5.47;;;;;;;15.75;45.45;98808.59;5113841;28;20039;-62
2021/11/01 10:43:39;;;;;;;;;;;;;;;15.77;44.75;98796.53;5114400;28;20096;-62
2021/11/01 11:13:24;;;;;;;10.55;5.18;;;;;;;16.35;44.43;98755.72;5113880;28;20489;-61
2021/11/01 11:15:56;;;;;;;11.63;6.28;;;;;;;16.35;44.38;98748.84;5113666;28;20054;-61
2021/11/01 11:18:48;;;;;;;9.82;5.50;;;;;;;16.41;44.43;98743.44;5113685;28;20043;-61
2021/11/01 11:29:52;;;;;;;8.85;5.35;;;;;;;16.79;43.66;98723.09;5113867;27;20069;-61
2021/11/01 11:38:16;;;;;;;10.50;5.65;;;;;;;16.86;43.48;98724.50;5113588;28;20039;-62
2021/11/01 11:49:04;;;;;;;9.93;5.47;;;;;;;16.37;44.56;98715.31;5117315;28;20051;-63
2021/11/01 11:51:39;;;;;;;8.68;5.28;;;;;;;16.42;44.57;98713.38;5117338;28;20135;-62
2021/11/01 11:54:11;;;;;;;9.02;5.32;;;;;;;16.23;44.91;98707.28;5117363;28;20507;-62
2021/11/01 11:56:45;;;;;;;8.05;5.22;;;;;;;16.01;45.64;98710.69;5110474;27;20051;-63
2021/11/01 11:59:14;;;;;;;8.55;5.38;;;;;;;15.89;45.85;98708.59;5116563;28;20063;-62
2021/11/01 12:01:51;;;;;;;8.75;5.50;;;;;;;15.90;46.16;98699.97;5116855;28;20054;-63
2021/11/01 12:04:24;;;;;;;8.80;5.38;;;;;;;15.72;46.91;98705.78;5117074;28;20100;-62
2021/11/01 12:07:01;;;;;;;10.57;5.88;;;;;;;15.51;46.87;98700.59;5120722;27;20039;-63
2021/11/01 12:09:37;;;;;;;9.90;5.43;;;;;;;15.45;47.10;98691.41;5100679;28;20048;-63
2021/11/01 12:17:39;;;;;;;10.10;4.93;;;;;;;15.32;48.05;98679.81;5086970;28;20032;-63
2021/11/01 12:20:10;;;;;;;8.95;5.78;;;;;;;15.21;48.08;98687.09;5104104;28;20502;-63
2021/11/01 12:22:47;;;;;;;8.95;4.32;;;;;;;15.14;48.75;98685.63;5105204;28;20048;-62
2021/11/01 12:25:24;;;;;;;9.90;5.82;;;;;;;15.11;48.74;98680.59;5103308;27;20085;-63
2021/11/01 12:28:02;;;;;;;9.88;5.78;;;;;;;15.16;48.57;98673.56;5115161;27;20044;-63
2021/11/01 12:30:39;;;;;;;8.50;4.22;;;;;;;15.26;48.57;98665.44;5118042;27;20036;-62
2021/11/01 12:33:10;;;;;;;10.57;5.53;;;;;;;15.32;48.19;98679.81;5115165;28;20123;-62
2021/11/01 12:35:44;;;;;;;9.20;5.22;;;;;;;15.28;48.24;98676.50;5111553;27;20036;-63
2021/11/01 12:38:20;;;;;;;9.20;6.07;;;;;;;15.15;48.55;98677.00;5106651;27;20036;-63
2021/11/01 12:40:55;;;;;;;9.98;5.85;;;;;;;15.12;48.72;98671.97;5095889;27;20052;-62
2021/11/01 12:57:07;;;;;;;9.03;5.80;;;;;;;14.86;49.99;98659.19;5095580;28;20043;-62
2021/11/01 12:59:42;;;;;;;8.85;5.32;;;;;;;14.89;49.53;98659.09;5101140;27;20139;-63
2021/11/01 13:02:14;;;;;;;9.80;6.20;;;;;;;14.92;49.63;98659.00;5118303;27;20054;-64
2021/11/01 13:04:45;;;;;;;9.07;5.60;;;;;;;14.95;49.85;98653.75;5123433;27;20129;-62
2021/11/01 13:07:35;;;;;;;10.38;5.95;;;;;;;14.85;50.13;98642.13;5122980;27;20043;-63
2021/11/01 13:10:15;;;;;;;9.57;5.75;;;;;;;14.93;50.11;98661.50;5116398;27;20425;-63
2021/11/01 13:12:55;;;;;;;9.23;5.90;;;;;;;14.90;50.00;98648.75;5126746;27;20057;-62
2021/11/01 13:18:10;;;;;;;10.95;6.70;;;;;;;14.88;50.39;98655.69;5101083;27;20481;-63
2021/11/01 13:20:43;;;;;;;8.63;4.70;;;;;;;14.90;50.68;98650.50;5112490;27;20048;-63
2021/11/01 13:23:13;;;;;;;9.80;5.57;;;;;;;14.89;50.54;98653.97;5118044;27;20066;-62
2021/11/01 13:28:43;;;;;;;12.07;6.15;;;;;;;14.89;50.28;98647.09;5113522;28;20053;-62
2021/11/01 13:36:54;;;;;;;9.18;5.35;;;;;;;15.18;50.39;98640.94;5115198;28;20515;-62
2021/11/01 13:39:28;;;;;;;8.98;5.25;;;;;;;15.20;49.68;98634.00;5115360;28;20071;-62
2021/11/01 13:42:09;;;;;;;10.43;6.03;;;;;;;15.17;50.25;98634.09;5115092;28;20071;-62
2021/11/01 13:44:38;;;;;;;11.27;6.20;;;;;;;15.15;50.02;98635.88;5115160;28;20058;-62
2021/11/01 13:47:14;;;;;;;12.07;6.43;;;;;;;15.06;49.86;98631.09;5115056;28;20039;-62
2021/11/01 13:49:45;;;;;;;10.00;6.30;;;;;;;15.06;49.60;98624.22;5114985;28;20044;-62
2021/11/01 13:52:40;;;;;;;12.60;6.28;;;;;;;15.09;49.22;98613.00;5115093;28;20166;-62
2021/11/01 13:55:18;;;;;;;8.93;5.90;;;;;;;15.15;49.47;98620.47;5114939;28;20039;-62
2021/11/01 13:57:53;;;;;;;11.18;6.50;;;;;;;15.08;49.47;98613.88;5114884;28;20047;-62
2021/11/01 14:00:38;;;;;;;10.90;7.00;;;;;;;15.00;49.68;98621.00;5114711;28;20047;-62
2021/11/01 14:03:24;;;;;;;10.73;5.80;;;;;;;14.98;50.07;98612.50;5114922;28;20431;-62
2021/11/01 14:14:27;;;;;;;11.52;6.90;;;;;;;14.66;50.52;98601.63;5114667;28;20051;-62
2021/11/01 14:17:06;;;;;;;11.27;6.20;;;;;;;14.54;51.01;98573.81;5114493;28;20054;-62
2021/11/01 14:20:01;;;;;;;11.50;6.10;;;;;;;14.64;50.79;98597.44;5114511;28;20059;-62
2021/11/01 14:28:14;;;;;;;11.55;6.45;;;;;;;14.48;51.49;98586.88;5114399;28;20047;-62
2021/11/01 14:31:04;;;;;;;12.27;6.05;;;;;;;14.48;51.68;98592.00;5114417;28;20126;-62
2021/11/01 14:33:58;;;;;;;11.13;6.28;;;;;;;14.46;51.91;98619.47;5114220;28;20381;-62
2021/11/01 14:58:40;;;;;;;9.77;6.28;;;;;;;14.42;52.37;98597.34;5114090;28;20046;-63
2021/11/01 15:01:41;;;;;;;13.02;7.30;;;;;;;14.45;52.63;98597.25;5113960;28;20047;-62
2021/11/01 15:18:34;;;;;;;12.32;6.70;;;;;;;13.87;52.62;98567.47;5112564;28;20071;-62
2021/11/01 15:21:16;;;;;;;12.02;7.22;;;;;;;13.95;53.18;98590.31;5115971;28;20047;-62
2021/11/01 15:24:08;;;;;;;11.57;7.10;;;;;;;13.95;52.53;98580.91;5118299;28;20048;-62
2021/11/01 15:30:56;;;;;;;10.32;6.03;;;;;;;13.96;53.05;98582.56;5114949;28;20067;-62
2021/11/01 16:20:17;;;;;;;12.70;7.60;;;;;;;13.35;56.44;98598.16;5054221;28;20045;-62
2021/11/01 16:23:07;;;;;;;11.35;7.38;;;;;;;13.33;56.79;98600.78;5053947;28;20049;-62
2021/11/01 16:26:00;;;;;;;15.88;7.95;;;;;;;13.28;56.92;98594.94;5034243;28;20411;-62
2021/11/01 16:28:40;;;;;;;13.15;7.40;;;;;;;13.26;57.07;98599.28;5034131;28;20041;-62
2021/11/01 16:34:21;;;;;;;14.32;7.93;;;;;;;13.17;57.93;98604.63;5004139;28;20077;-62
2021/11/01 16:37:15;;;;;;;15.20;8.65;;;;;;;13.09;57.92;98616.84;5075578;28;20081;-62
2021/11/01 16:39:52;;;;;;;12.77;7.93;;;;;;;13.02;58.57;98617.03;5114255;28;20039;-62
2021/11/01 16:42:30;;;;;;;12.80;7.13;;;;;;;13.00;58.61;98596.59;5114426;28;20050;-63
2021/11/01 16:45:14;;;;;;;;;;;;;;;12.97;59.02;98594.09;5114748;28;20048;-62
2021/11/01 16:47:48;;;;;;;14.38;7.60;;;;;;;12.90;59.24;98586.63;5114490;28;19920;-62
2021/11/01 16:50:25;;;;;;;12.88;8.02;;;;;;;12.97;59.26;98576.19;5115493;28;20063;-62
2021/11/01 16:53:00;;;;;;;13.30;8.18;;;;;;;12.97;59.48;98586.41;5116276;28;20517;-62
2021/11/01 16:55:41;;;;;;;14.20;7.95;;;;;;;12.99;59.51;98589.78;5116384;28;20152;-62
2021/11/01 16:58:24;;;;;;;14.07;7.38;;;;;;;12.98;59.53;98577.03;5115084;28;20043;-63
2021/11/01 17:01:03;;;;;;;16.27;8.35;;;;;;;12.97;59.72;98581.28;5116229;28;20499;-62
2021/11/01 17:03:39;;;;;;;13.05;7.05;;;;;;;12.91;59.60;98578.88;5115432;28;20047;-62
2021/11/01 17:06:24;;;;;;;16.40;9.02;;;;;;;12.96;59.72;98597.53;5115898;28;20143;-62
2021/11/01 17:09:23;;;;;;;11.25;7.47;;;;;;;13.02;59.75;98583.72;5115991;28;20528;-62
2021/11/01 17:22:53;;;;;;;14.00;8.23;;;;;;;12.93;60.40;98591.66;5115850;28;20047;-62
2021/11/01 17:25:32;;;;;;;12.38;5.93;;;;;;;12.92;60.61;98590.81;5115595;28;20108;-62
2021/11/01 17:36:46;;;;;;;15.38;7.53;;;;;;;13.27;60.47;98590.69;5112230;27;20044;-62
2021/11/01 18:45:15;;;;;;;15.85;7.63;;;;;;;13.15;62.42;98585.91;5097495;28;20512;-62
2021/11/01 18:53:10;;;;;;;15.05;7.85;;;;;;;13.22;63.01;98579.72;5113155;28;20093;-62
2021/11/01 18:55:53;;;;;;;11.90;7.40;;;;;;;13.21;62.78;98579.78;5113895;28;20051;-63
2021/11/01 18:58:24;;;;;;;;;;;;;;;13.20;62.85;98573.81;5113632;28;20926;-63
2021/11/01 19:01:04;;;;;;;12.35;7.80;;;;;;;13.22;62.74;98566.91;5113765;28;19973;-62
2021/11/01 19:03:40;;;;;;;12.32;7.93;;;;;;;13.08;63.06;98569.03;5114146;28;20481;-63
2021/11/01 19:06:23;;;;;;;11.95;6.90;;;;;;;13.07;63.35;98569.94;5113872;28;20075;-62
2021/11/01 19:09:11;;;;;;;15.20;8.70;;;;;;;13.06;63.46;98563.13;5113818;28;20131;-63
2021/11/01 20:04:26;;;;;;;12.40;7.53;;;;;;;13.38;62.89;98550.22;5031014;28;20136;-62
2021/11/01 21:26:59;;;;;;;12.80;7.30;;;;;;;12.92;65.42;98529.38;5115647;28;20134;-61
2021/11/01 21:29:29;;;;;;;9.07;5.93;;;;;;;12.86;65.95;98537.19;5115519;28;20054;-62
2021/11/01 21:32:06;;;;;;;13.15;8.18;;;;;;;12.77;66.78;98527.22;5115557;28;20043;-62
2021/11/01 21:34:41;;;;;;;14.60;8.50;;;;;;;12.70;67.76;98530.84;5115493;28;20050;-62
2021/11/01 21:37:14;;;;;;;12.95;7.95;;;;;;;12.65;68.56;98517.31;5115431;28;20126;-62
2021/11/01 21:39:47;;;;;;;14.68;8.25;;;;;;;12.60;68.92;98524.28;5115385;28;20052;-62
2021/11/01 21:42:20;;;;;;;14.90;7.90;;;;;;;12.57;69.31;98520.09;5115297;28;20119;-62
2021/11/01 21:44:53;;;;;;;12.32;6.95;;;;;;;12.53;69.51;98515.94;5115317;28;20486;-61
2021/11/01 21:47:26;;;;;;;12.52;7.15;;;;;;;12.44;70.17;98517.91;5115200;28;20044;-61
2021/11/01 21:49:59;;;;;;;9.52;5.90;;;;;;;12.35;70.49;98513.06;5115444;28;20481;-62
2021/11/01 21:52:32;;;;;;;11.25;6.43;;;;;;;12.34;70.74;98516.47;5115191;28;20078;-62